Time,TemperatureF,DewpointF,PressureIn,WindDirection,WindDirectionDegrees,WindSpeedMPH,WindSpeedGustMPH,Humidity,HourlyPrecipIn,Conditions,Clouds,dailyrainin,SoftwareType,DateUTC
2013-01-13 00:03:00,17.0,11.0,30.19,NNE,33,3.0,4.0,77,0.00,,,0.00,,2013-01-13 06:03:00,
2013-01-13 00:12:00,17.0,11.0,30.19,NNE,33,3.0,4.0,77,0.00,,,0.00,,2013-01-13 06:12:00,
2013-01-13 00:22:00,16.0,10.0,30.19,NNE,26,3.0,6.0,78,0.00,,,0.00,,2013-01-13 06:22:00,
2013-01-13 00:32:00,17.0,11.0,30.19,NNE,24,3.0,8.0,77,0.00,,,0.00,,2013-01-13 06:32:00,
2013-01-13 00:42:00,17.0,11.0,30.19,NNE,24,3.0,8.0,77,0.00,,,0.00,,2013-01-13 06:42:00,
2013-01-13 00:52:00,16.0,10.0,30.19,NNE,19,3.0,6.0,77,0.00,,,0.00,,2013-01-13 06:52:00,
2013-01-13 01:02:00,16.0,10.0,30.19,NNE,23,6.0,10.0,76,0.00,,,0.00,,2013-01-13 07:02:00,
2013-01-13 01:12:00,16.0,10.0,30.19,NNE,23,6.0,10.0,76,0.00,,,0.00,,2013-01-13 07:12:00,
2013-01-13 01:22:00,16.0,10.0,30.19,NE,36,5.0,12.0,76,0.00,,,0.00,,2013-01-13 07:22:00,
2013-01-13 01:32:00,16.0,10.0,30.19,NNE,12,6.0,12.0,76,0.00,,,0.00,,2013-01-13 07:32:00,
2013-01-13 01:42:00,16.0,10.0,30.19,NNE,12,6.0,12.0,76,0.00,,,0.00,,2013-01-13 07:42:00,
2013-01-13 01:52:00,15.0,9.0,30.19,NNE,23,6.0,14.0,75,0.00,,,0.00,,2013-01-13 07:52:00,
2013-01-13 02:02:00,15.0,8.0,30.19,NNE,24,4.0,11.0,74,0.00,,,0.00,,2013-01-13 08:02:00,
2013-01-13 02:12:00,15.0,8.0,30.19,NNE,24,4.0,11.0,74,0.00,,,0.00,,2013-01-13 08:12:00,
2013-01-13 02:22:00,15.0,8.0,30.19,NNE,30,7.0,13.0,73,0.00,,,0.00,,2013-01-13 08:22:00,
2013-01-13 02:32:00,15.0,8.0,30.19,NE,44,5.0,13.0,73,0.00,,,0.00,,2013-01-13 08:32:00,
2013-01-13 02:42:00,15.0,8.0,30.19,NE,44,5.0,13.0,73,0.00,,,0.00,,2013-01-13 08:42:00,
2013-01-13 02:52:00,15.0,8.0,30.19,NE,44,5.0,13.0,73,0.00,,,0.00,,2013-01-13 08:52:00,
2013-01-13 03:02:00,14.0,8.0,30.22,NNE,24,3.0,9.0,75,0.00,,,0.00,,2013-01-13 09:02:00,
2013-01-13 03:12:00,14.0,8.0,30.23,NNE,30,4.0,9.0,76,0.00,,,0.00,,2013-01-13 09:12:00,
2013-01-13 03:22:00,14.0,8.0,30.23,NNE,30,4.0,9.0,76,0.00,,,0.00,,2013-01-13 09:22:00,
2013-01-13 03:32:00,14.0,8.0,30.24,NE,42,6.0,11.0,76,0.00,,,0.00,,2013-01-13 09:32:00,
2013-01-13 03:42:00,14.0,8.0,30.24,NE,42,6.0,11.0,76,0.00,,,0.00,,2013-01-13 09:42:00,
2013-01-13 03:52:00,13.0,7.0,30.24,NE,45,4.0,10.0,76,0.00,,,0.00,,2013-01-13 09:52:00,
2013-01-13 04:02:00,13.0,7.0,30.24,NNE,30,6.0,11.0,77,0.00,,,0.00,,2013-01-13 10:02:00,
2013-01-13 04:12:00,13.0,7.0,30.24,NNE,30,6.0,11.0,77,0.00,,,0.00,,2013-01-13 10:12:00,
2013-01-13 04:22:00,13.0,7.0,30.24,NNE,32,8.0,14.0,76,0.00,,,0.00,,2013-01-13 10:22:00,
2013-01-13 04:32:00,13.0,7.0,30.24,NE,46,6.0,10.0,76,0.00,,,0.00,,2013-01-13 10:32:00,
2013-01-13 04:42:00,13.0,7.0,30.24,NE,46,6.0,10.0,76,0.00,,,0.00,,2013-01-13 10:42:00,
2013-01-13 04:52:00,13.0,7.0,30.24,NE,51,6.0,11.0,78,0.00,,,0.00,,2013-01-13 10:52:00,
2013-01-13 05:02:00,13.0,7.0,30.24,NE,36,4.0,10.0,77,0.00,,,0.00,,2013-01-13 11:02:00,
2013-01-13 05:12:00,13.0,7.0,30.24,NE,36,4.0,10.0,77,0.00,,,0.00,,2013-01-13 11:12:00,
2013-01-13 05:22:00,12.0,6.0,30.24,NNE,28,5.0,9.0,78,0.00,,,0.00,,2013-01-13 11:22:00,
2013-01-13 05:32:00,12.0,6.0,30.24,ENE,57,4.0,10.0,78,0.00,,,0.00,,2013-01-13 11:32:00,
2013-01-13 05:42:00,12.0,6.0,30.24,ENE,57,4.0,10.0,78,0.00,,,0.00,,2013-01-13 11:42:00,
2013-01-13 05:52:00,12.0,6.0,30.24,NE,40,4.0,10.0,78,0.00,,,0.00,,2013-01-13 11:52:00,
2013-01-13 06:03:00,12.0,7.0,30.24,NE,36,4.0,7.0,79,0.00,,,0.00,,2013-01-13 12:03:00,
2013-01-13 06:12:00,12.0,7.0,30.24,NE,36,4.0,7.0,79,0.00,,,0.00,,2013-01-13 12:12:00,
2013-01-13 06:22:00,12.0,7.0,30.26,NE,34,5.0,8.0,79,0.00,,,0.00,,2013-01-13 12:22:00,
2013-01-13 06:32:00,12.0,7.0,30.27,NNE,32,3.0,7.0,79,0.00,,,0.00,,2013-01-13 12:32:00,
2013-01-13 06:42:00,12.0,7.0,30.27,NNE,32,3.0,7.0,79,0.00,,,0.00,,2013-01-13 12:42:00,
2013-01-13 06:52:00,12.0,7.0,30.28,NE,54,3.0,7.0,80,0.00,,,0.00,,2013-01-13 12:52:00,
2013-01-13 07:02:00,12.0,7.0,30.29,NE,35,5.0,7.0,80,0.00,,,0.00,,2013-01-13 13:02:00,
2013-01-13 07:12:00,12.0,7.0,30.29,NE,35,5.0,7.0,80,0.00,,,0.00,,2013-01-13 13:12:00,
2013-01-13 07:22:00,11.0,6.0,30.29,NE,40,2.0,6.0,81,0.00,,,0.00,,2013-01-13 13:22:00,
2013-01-13 07:33:00,11.0,7.0,30.29,NE,36,1.0,3.0,82,0.00,,,0.00,,2013-01-13 13:33:00,
2013-01-13 07:42:00,11.0,7.0,30.29,NE,36,1.0,3.0,82,0.00,,,0.00,,2013-01-13 13:42:00,
2013-01-13 07:53:00,11.0,7.0,30.30,NE,38,2.0,4.0,83,0.00,,,0.00,,2013-01-13 13:53:00,
2013-01-13 08:03:00,11.0,7.0,30.31,NE,42,1.0,4.0,83,0.00,,,0.00,,2013-01-13 14:03:00,
2013-01-13 08:12:00,11.0,7.0,30.31,NE,42,1.0,4.0,83,0.00,,,0.00,,2013-01-13 14:12:00,
2013-01-13 08:22:00,11.0,7.0,30.32,NE,36,2.0,4.0,83,0.00,,,0.00,,2013-01-13 14:22:00,
2013-01-13 08:33:00,11.0,7.0,30.32,NE,34,3.0,5.0,83,0.00,,,0.00,,2013-01-13 14:33:00,
2013-01-13 08:43:00,11.0,7.0,30.32,NE,34,3.0,5.0,83,0.00,,,0.00,,2013-01-13 14:43:00,
2013-01-13 08:52:00,11.0,7.0,30.32,NE,34,3.0,5.0,83,0.00,,,0.00,,2013-01-13 14:52:00,
2013-01-13 09:03:00,13.0,8.0,30.34,NNE,32,4.0,6.0,79,0.00,,,0.00,,2013-01-13 15:03:00,
2013-01-13 09:12:00,13.0,8.0,30.34,NNE,32,4.0,6.0,79,0.00,,,0.00,,2013-01-13 15:12:00,
2013-01-13 09:23:00,13.0,7.0,30.34,NE,36,3.0,8.0,78,0.00,,,0.00,,2013-01-13 15:23:00,
2013-01-13 09:33:00,13.0,7.0,30.34,NE,36,3.0,8.0,78,0.00,,,0.00,,2013-01-13 15:33:00,
2013-01-13 09:43:00,13.0,7.0,30.34,NE,36,3.0,8.0,78,0.00,,,0.00,,2013-01-13 15:43:00,
2013-01-13 09:52:00,14.0,7.0,30.35,NNE,29,4.0,8.0,73,0.00,,,0.00,,2013-01-13 15:52:00,
2013-01-13 10:03:00,15.0,8.0,30.36,NE,34,5.0,9.0,72,0.00,,,0.00,,2013-01-13 16:03:00,
2013-01-13 10:12:00,15.0,8.0,30.36,NE,34,5.0,9.0,72,0.00,,,0.00,,2013-01-13 16:12:00,
2013-01-13 10:23:00,16.0,8.0,30.36,NE,34,2.0,9.0,70,0.00,,,0.00,,2013-01-13 16:23:00,
2013-01-13 10:33:00,16.0,8.0,30.37,ENE,67,1.0,10.0,69,0.00,,,0.00,,2013-01-13 16:33:00,
2013-01-13 10:43:00,16.0,8.0,30.37,ENE,67,1.0,10.0,69,0.00,,,0.00,,2013-01-13 16:43:00,
2013-01-13 10:52:00,18.0,9.0,30.37,NNE,20,1.0,7.0,68,0.00,,,0.00,,2013-01-13 16:52:00,
2013-01-13 11:03:00,18.0,8.0,30.37,NE,34,4.0,10.0,64,0.00,,,0.00,,2013-01-13 17:03:00,
2013-01-13 11:12:00,18.0,8.0,30.37,NE,34,4.0,10.0,64,0.00,,,0.00,,2013-01-13 17:12:00,
2013-01-13 11:22:00,18.0,8.0,30.38,ENE,70,2.0,9.0,64,0.00,,,0.00,,2013-01-13 17:22:00,
2013-01-13 11:33:00,20.0,9.0,30.37,South,187,3.0,9.0,63,0.00,,,0.00,,2013-01-13 17:33:00,
2013-01-13 11:42:00,20.0,9.0,30.37,South,187,3.0,9.0,63,0.00,,,0.00,,2013-01-13 17:42:00,
2013-01-13 11:53:00,20.0,8.0,30.36,SE,145,1.0,7.0,60,0.00,,,0.00,,2013-01-13 17:53:00,
2013-01-13 12:03:00,21.0,9.0,30.36,SSE,164,1.0,7.0,59,0.00,,,0.00,,2013-01-13 18:03:00,
2013-01-13 12:12:00,21.0,9.0,30.36,SSE,164,1.0,7.0,59,0.00,,,0.00,,2013-01-13 18:12:00,
2013-01-13 12:23:00,21.0,8.0,30.35,NE,42,3.0,10.0,56,0.00,,,0.00,,2013-01-13 18:23:00,
2013-01-13 12:33:00,22.0,10.0,30.34,NNE,26,3.0,10.0,58,0.00,,,0.00,,2013-01-13 18:33:00,
2013-01-13 12:43:00,22.0,10.0,30.34,NNE,26,3.0,10.0,58,0.00,,,0.00,,2013-01-13 18:43:00,
2013-01-13 12:53:00,22.0,8.0,30.33,NNE,24,3.0,10.0,54,0.00,,,0.00,,2013-01-13 18:53:00,
2013-01-13 13:03:00,24.0,11.0,30.32,NNE,22,0.0,7.0,56,0.00,,,0.00,,2013-01-13 19:03:00,
2013-01-13 13:12:00,24.0,11.0,30.32,NNE,22,0.0,7.0,56,0.00,,,0.00,,2013-01-13 19:12:00,
2013-01-13 13:22:00,23.0,9.0,30.32,NNE,16,3.0,11.0,54,0.00,,,0.00,,2013-01-13 19:22:00,
2013-01-13 13:33:00,23.0,9.0,30.32,NNE,16,3.0,11.0,54,0.00,,,0.00,,2013-01-13 19:33:00,
2013-01-13 13:43:00,23.0,9.0,30.32,NNE,16,3.0,11.0,54,0.00,,,0.00,,2013-01-13 19:43:00,
2013-01-13 13:52:00,24.0,9.0,30.31,NNE,32,1.0,9.0,53,0.00,,,0.00,,2013-01-13 19:52:00,
2013-01-13 14:03:00,25.0,10.0,30.29,NE,43,5.0,9.0,52,0.00,,,0.00,,2013-01-13 20:03:00,
2013-01-13 14:12:00,25.0,10.0,30.29,NE,43,5.0,9.0,52,0.00,,,0.00,,2013-01-13 20:12:00,
2013-01-13 14:22:00,26.0,11.0,30.30,NE,43,3.0,10.0,53,0.00,,,0.00,,2013-01-13 20:22:00,
2013-01-13 14:33:00,26.0,11.0,30.30,NNE,20,5.0,9.0,52,0.00,,,0.00,,2013-01-13 20:33:00,
2013-01-13 14:43:00,26.0,11.0,30.30,NNE,20,5.0,9.0,52,0.00,,,0.00,,2013-01-13 20:43:00,
2013-01-13 14:53:00,26.0,10.0,30.29,NE,38,8.0,12.0,51,0.00,,,0.00,,2013-01-13 20:53:00,
2013-01-13 15:03:00,26.0,11.0,30.30,NNE,28,4.0,12.0,52,0.00,,,0.00,,2013-01-13 21:03:00,
2013-01-13 15:12:00,26.0,11.0,30.30,NNE,28,4.0,12.0,52,0.00,,,0.00,,2013-01-13 21:12:00,
2013-01-13 15:23:00,26.0,10.0,30.30,NNE,28,7.0,13.0,51,0.00,,,0.00,,2013-01-13 21:23:00,
2013-01-13 15:33:00,27.0,11.0,30.32,SSE,159,1.0,8.0,51,0.00,,,0.00,,2013-01-13 21:33:00,
2013-01-13 15:43:00,27.0,11.0,30.32,SSE,159,1.0,8.0,51,0.00,,,0.00,,2013-01-13 21:43:00,
2013-01-13 15:52:00,27.0,11.0,30.32,ENE,76,2.0,9.0,51,0.00,,,0.00,,2013-01-13 21:52:00,
2013-01-13 16:02:00,27.0,11.0,30.34,NE,34,5.0,10.0,50,0.00,,,0.00,,2013-01-13 22:02:00,
2013-01-13 16:12:00,27.0,11.0,30.34,NE,34,5.0,10.0,50,0.00,,,0.00,,2013-01-13 22:12:00,
2013-01-13 16:22:00,27.0,11.0,30.33,NE,36,6.0,11.0,51,0.00,,,0.00,,2013-01-13 22:22:00,
2013-01-13 16:33:00,26.0,10.0,30.33,NE,36,7.0,11.0,51,0.00,,,0.00,,2013-01-13 22:33:00,
2013-01-13 16:43:00,26.0,10.0,30.33,NE,36,7.0,11.0,51,0.00,,,0.00,,2013-01-13 22:43:00,
2013-01-13 16:52:00,26.0,10.0,30.33,NNE,28,5.0,11.0,51,0.00,,,0.00,,2013-01-13 22:52:00,
2013-01-13 17:02:00,26.0,11.0,30.33,NNE,20,4.0,10.0,52,0.00,,,0.00,,2013-01-13 23:02:00,
2013-01-13 17:12:00,26.0,11.0,30.33,NNE,20,4.0,10.0,52,0.00,,,0.00,,2013-01-13 23:12:00,
2013-01-13 17:22:00,26.0,11.0,30.34,ESE,103,3.0,9.0,53,0.00,,,0.00,,2013-01-13 23:22:00,
2013-01-13 17:33:00,25.0,11.0,30.34,NE,36,3.0,8.0,55,0.00,,,0.00,,2013-01-13 23:33:00,
2013-01-13 17:42:00,25.0,11.0,30.34,NE,36,3.0,8.0,55,0.00,,,0.00,,2013-01-13 23:42:00,
2013-01-13 17:52:00,24.0,11.0,30.34,NE,36,3.0,5.0,56,0.00,,,0.00,,2013-01-13 23:52:00,
2013-01-13 18:03:00,23.0,11.0,30.35,NE,37,2.0,4.0,60,0.00,,,0.00,,2013-01-14 00:03:00,
2013-01-13 18:12:00,23.0,11.0,30.35,NE,37,2.0,4.0,60,0.00,,,0.00,,2013-01-14 00:12:00,
2013-01-13 18:22:00,22.0,12.0,30.35,NE,41,1.0,3.0,64,0.00,,,0.00,,2013-01-14 00:22:00,
2013-01-13 18:33:00,21.0,11.0,30.34,NE,41,0.0,3.0,66,0.00,,,0.00,,2013-01-14 00:33:00,
2013-01-13 18:43:00,21.0,11.0,30.34,NE,41,0.0,3.0,66,0.00,,,0.00,,2013-01-14 00:43:00,
2013-01-13 18:52:00,21.0,11.0,30.35,NE,42,0.0,4.0,65,0.00,,,0.00,,2013-01-14 00:52:00,
2013-01-13 19:03:00,21.0,11.0,30.35,NE,42,0.0,5.0,66,0.00,,,0.00,,2013-01-14 01:03:00,
2013-01-13 19:12:00,21.0,11.0,30.35,NE,42,0.0,5.0,66,0.00,,,0.00,,2013-01-14 01:12:00,
2013-01-13 19:22:00,20.0,11.0,30.36,NE,42,0.0,1.0,68,0.00,,,0.00,,2013-01-14 01:22:00,
2013-01-13 19:32:00,19.0,11.0,30.36,NE,42,0.0,0.0,69,0.00,,,0.00,,2013-01-14 01:32:00,
2013-01-13 19:42:00,19.0,11.0,30.36,NE,42,0.0,0.0,69,0.00,,,0.00,,2013-01-14 01:42:00,
2013-01-13 19:52:00,19.0,11.0,30.37,NE,42,0.0,0.0,71,0.00,,,0.00,,2013-01-14 01:52:00,
2013-01-13 20:02:00,19.0,11.0,30.37,NE,42,0.0,1.0,69,0.00,,,0.00,,2013-01-14 02:02:00,
2013-01-13 20:12:00,19.0,11.0,30.37,NE,42,0.0,1.0,69,0.00,,,0.00,,2013-01-14 02:12:00,
2013-01-13 20:22:00,19.0,11.0,30.37,NE,42,0.0,0.0,71,0.00,,,0.00,,2013-01-14 02:22:00,
2013-01-13 20:32:00,18.0,11.0,30.37,NE,42,0.0,0.0,73,0.00,,,0.00,,2013-01-14 02:32:00,
2013-01-13 20:42:00,18.0,11.0,30.37,NE,42,0.0,0.0,73,0.00,,,0.00,,2013-01-14 02:42:00,
2013-01-13 20:53:00,19.0,11.0,30.38,NE,43,1.0,3.0,71,0.00,,,0.00,,2013-01-14 02:53:00,
2013-01-13 21:02:00,19.0,11.0,30.38,NNE,31,2.0,5.0,70,0.00,,,0.00,,2013-01-14 03:02:00,
2013-01-13 21:12:00,19.0,11.0,30.38,NNE,31,2.0,5.0,70,0.00,,,0.00,,2013-01-14 03:12:00,
2013-01-13 21:22:00,19.0,11.0,30.39,NE,40,1.0,4.0,69,0.00,,,0.00,,2013-01-14 03:22:00,
2013-01-13 21:32:00,19.0,11.0,30.40,NE,40,0.0,2.0,70,0.00,,,0.00,,2013-01-14 03:32:00,
2013-01-13 21:42:00,19.0,11.0,30.40,NE,40,0.0,2.0,70,0.00,,,0.00,,2013-01-14 03:42:00,
2013-01-13 21:52:00,18.0,11.0,30.41,NE,40,0.0,0.0,72,0.00,,,0.00,,2013-01-14 03:52:00,
2013-01-13 22:02:00,18.0,11.0,30.41,NE,40,0.0,0.0,72,0.00,,,0.00,,2013-01-14 04:02:00,
2013-01-13 22:12:00,18.0,11.0,30.41,NE,40,0.0,0.0,72,0.00,,,0.00,,2013-01-14 04:12:00,
2013-01-13 22:22:00,18.0,11.0,30.41,NE,43,0.0,3.0,72,0.00,,,0.00,,2013-01-14 04:22:00,
2013-01-13 22:32:00,18.0,10.0,30.41,NE,40,1.0,3.0,71,0.00,,,0.00,,2013-01-14 04:32:00,
2013-01-13 22:42:00,18.0,10.0,30.41,NE,40,1.0,3.0,71,0.00,,,0.00,,2013-01-14 04:42:00,
2013-01-13 22:52:00,18.0,10.0,30.41,NE,36,1.0,3.0,71,0.00,,,0.00,,2013-01-14 04:52:00,
2013-01-13 23:04:00,17.0,10.0,30.41,NE,40,0.0,2.0,72,0.00,,,0.00,,2013-01-14 05:04:00,
2013-01-13 23:12:00,17.0,10.0,30.41,NE,40,0.0,2.0,72,0.00,,,0.00,,2013-01-14 05:12:00,
2013-01-13 23:22:00,17.0,10.0,30.41,NE,40,0.0,0.0,73,0.00,,,0.00,,2013-01-14 05:22:00,
2013-01-13 23:32:00,16.0,9.0,30.41,NE,40,0.0,2.0,75,0.00,,,0.00,,2013-01-14 05:32:00,
2013-01-13 23:42:00,16.0,9.0,30.41,NE,40,0.0,2.0,75,0.00,,,0.00,,2013-01-14 05:42:00,
2013-01-13 23:52:00,16.0,10.0,30.42,NE,40,0.0,1.0,76,0.00,,,0.00,,2013-01-14 05:52:00,